Portada
METAR-TAF:

METAR-TAF

Aeroports :

Aeroport Internacional de Singapur-Changi

Singapur, Singapur

latitud: 01-22N, longitud: 103-59E, altitud: 5 m

Observació

L'informe es va fer fa 24 minuts, a les 11:30 UTC
Vent 10 kt del Sud/Sud-Est, variant entre Sud-Est i Sud/Sud-Oest
Temperatura 29°C
Humitat 70%
Pressió 1010 hPa
Visibilitat: 2500 m
Escasses núvols a una alçada de 2000 ft
Núvols disperses a una alçada de 28000 ft
calitja

METAR: WSSS 181130Z 16010KT 140V200 2500 HZ FEW020 SCT280 29/23 Q1010 NOSIG

Hora: 19:54 (11:54 UTC)

Pronòstic

L'informe es va fer fa 54 minuts, a les 11:00 UTC
Pronòstic vàlid del 18 a les 12 UTC al 19 a les 18 UTC
Vent 7 kt del Sud-Est
Visibilitat: 2500 m
Escasses núvols a una alçada de 1500 ft
Núvols disperses a una alçada de 2000 ft
calitja
Temporalment
l' 18 a les 21 UTC al 19 a les 02 UTC
Visibilitat: 1400 m

TAF: WSSS 181100Z 1812/1918 14007KT 2500 HZ FEW015 SCT020 TEMPO 1821/1902 1400

Observacions i pronòstics meteorològics de més de 4000 aeroports (METAR i TAF).

Les estacions disponibles són els punts grocs i vermells al mapa.

Posi el ratolí al punt desitjat per veure el nom de l'estació.

Feu clic per veure les observacions i els pronòstics meteorològics.

Per canviar el mapa: feu clic els botons verds amb una creu de color negre per apropar; al botó verd amb un guió per allunyar la imatge; o en les fletxes verdes per a mapes adjacents.


METAR-TAF: